createdAt,value
2023-03-02T00:01:44.109Z,1.50
2023-03-02T00:04:12.770Z,1.60
2023-03-02T00:06:39.650Z,1.60
2023-03-02T00:09:06.727Z,1.60
2023-03-02T00:11:34.497Z,1.30
2023-03-02T00:14:01.310Z,1.60
2023-03-02T00:16:28.571Z,1.65
2023-03-02T00:18:55.377Z,1.50
2023-03-02T00:21:24.523Z,1.42
2023-03-02T00:23:52.335Z,1.63
2023-03-02T00:26:19.561Z,1.75
2023-03-02T00:28:46.456Z,1.60
2023-03-02T00:31:13.293Z,1.88
2023-03-02T00:33:40.155Z,1.85
2023-03-02T00:36:14.138Z,1.52
2023-03-02T00:38:41.104Z,1.63
2023-03-02T00:41:07.900Z,1.70
2023-03-02T00:43:34.700Z,1.60
2023-03-02T00:46:08.175Z,1.88
2023-03-02T00:48:34.993Z,1.90
2023-03-02T00:51:01.755Z,1.90
2023-03-02T00:53:28.592Z,2.00
2023-03-02T00:55:55.907Z,2.00
2023-03-02T00:58:23.198Z,1.55
2023-03-02T01:00:50.063Z,1.83
2023-03-02T01:03:17.037Z,1.60
2023-03-02T01:05:44.356Z,1.90
2023-03-02T01:08:11.513Z,1.90
2023-03-02T01:10:38.865Z,1.75
2023-03-02T01:13:06.273Z,2.17
2023-03-02T01:15:33.679Z,1.70
2023-03-02T01:18:01.195Z,1.65
2023-03-02T01:20:28.260Z,2.10
2023-03-02T01:22:55.376Z,1.95
2023-03-02T01:25:22.151Z,1.67
2023-03-02T01:27:48.995Z,1.92
2023-03-02T01:30:15.888Z,1.90
2023-03-02T01:32:42.707Z,1.85
2023-03-02T01:35:09.691Z,1.95
2023-03-02T01:37:36.465Z,2.13
2023-03-02T01:40:06.892Z,2.30
2023-03-02T01:42:34.473Z,1.83
2023-03-02T01:45:01.835Z,2.10
2023-03-02T01:47:32.386Z,2.00
2023-03-02T01:50:01.341Z,2.17
2023-03-02T01:52:29.510Z,1.90
2023-03-02T01:54:58.545Z,1.90
2023-03-02T01:57:29.413Z,2.13
2023-03-02T01:59:59.697Z,2.08
2023-03-02T02:02:26.822Z,2.70
2023-03-02T02:04:54.806Z,2.17
2023-03-02T02:07:21.621Z,2.08
2023-03-02T02:09:49.985Z,2.30
2023-03-02T02:12:17.924Z,2.10
2023-03-02T02:14:45.659Z,2.22
2023-03-02T02:17:13.209Z,2.00
2023-03-02T02:19:42.833Z,2.97
2023-03-02T02:22:10.120Z,2.38
2023-03-02T02:24:44.500Z,2.30
2023-03-02T02:27:11.598Z,1.95
2023-03-02T02:29:45.515Z,2.25
2023-03-02T02:32:14.649Z,2.53
2023-03-02T02:34:44.451Z,2.20
2023-03-02T02:37:16.393Z,2.60
2023-03-02T02:39:46.936Z,2.38
2023-03-02T02:42:23.842Z,2.08
2023-03-02T02:44:51.446Z,2.17
2023-03-02T02:47:19.626Z,2.28
2023-03-02T02:49:47.715Z,2.33
2023-03-02T02:52:17.074Z,1.83
2023-03-02T02:54:45.002Z,2.00
2023-03-02T02:57:12.790Z,2.78
2023-03-02T02:59:43.432Z,2.17
2023-03-02T03:02:20.949Z,2.55
2023-03-02T03:04:47.871Z,2.33
2023-03-02T03:07:33.247Z,2.63
2023-03-02T03:10:18.645Z,2.28
2023-03-02T03:12:46.180Z,2.10
2023-03-02T03:15:13.697Z,2.70
2023-03-02T03:17:40.980Z,3.10
2023-03-02T03:20:11.765Z,2.90
2023-03-02T03:22:38.897Z,3.30
2023-03-02T03:25:06.331Z,2.50
2023-03-02T03:27:33.277Z,2.28
2023-03-02T03:30:01.958Z,2.60
2023-03-02T03:32:28.844Z,2.60
2023-03-02T03:34:55.829Z,2.85
2023-03-02T03:37:22.745Z,2.63
2023-03-02T03:39:49.776Z,2.92
2023-03-02T03:42:16.654Z,2.75
2023-03-02T03:44:43.417Z,2.72
2023-03-02T03:47:10.301Z,3.13
2023-03-02T03:49:37.137Z,3.30
2023-03-02T03:52:04.059Z,3.70
2023-03-02T03:54:31.011Z,3.00
2023-03-02T03:56:57.956Z,3.13
2023-03-02T03:59:25.842Z,3.00
2023-03-02T04:01:54.682Z,2.90
2023-03-02T04:04:26.592Z,3.58
2023-03-02T04:09:20.199Z,3.20
2023-03-02T04:11:48.446Z,3.13
2023-03-02T04:14:15.834Z,3.25
2023-03-02T04:16:43.178Z,4.15
2023-03-02T04:19:10.690Z,3.42
2023-03-02T04:21:41.719Z,3.55
2023-03-02T04:24:09.356Z,3.78
2023-03-02T04:26:36.944Z,3.88
2023-03-02T04:29:03.784Z,3.78
2023-03-02T04:31:31.399Z,4.38
2023-03-02T04:33:59.291Z,4.05
2023-03-02T04:36:26.584Z,3.63
2023-03-02T04:38:53.576Z,4.63
2023-03-02T04:41:20.384Z,4.82
2023-03-02T04:43:47.357Z,4.18
2023-03-02T04:46:19.651Z,4.40
2023-03-02T04:48:46.541Z,4.22
2023-03-02T04:51:18.590Z,4.32
2023-03-02T04:53:45.449Z,4.82
2023-03-02T04:56:12.292Z,4.53
2023-03-02T04:58:39.128Z,4.80
2023-03-02T05:01:07.355Z,4.47
2023-03-02T05:03:34.183Z,4.75
2023-03-02T05:06:02.304Z,3.88
2023-03-02T05:08:29.504Z,4.88
2023-03-02T05:10:56.404Z,5.30
2023-03-02T05:13:23.247Z,4.93
2023-03-02T05:15:51.726Z,5.25
2023-03-02T05:18:18.804Z,5.35
2023-03-02T05:20:46.083Z,5.50
2023-03-02T05:23:25.197Z,5.72
2023-03-02T05:25:53.427Z,5.05
2023-03-02T05:28:21.176Z,5.68
2023-03-02T05:30:48.092Z,5.13
2023-03-02T05:33:15.690Z,5.47
2023-03-02T05:35:42.699Z,5.40
2023-03-02T05:38:09.896Z,5.25
2023-03-02T05:40:36.933Z,5.05
2023-03-02T05:43:04.425Z,5.75
2023-03-02T05:45:33.231Z,5.15
2023-03-02T05:48:00.055Z,5.20
2023-03-02T05:50:26.938Z,5.78
2023-03-02T05:52:53.999Z,5.20
2023-03-02T05:55:20.866Z,5.22
2023-03-02T05:57:49.438Z,5.13
2023-03-02T06:00:17.243Z,5.88
2023-03-02T06:02:44.227Z,5.55
2023-03-02T06:05:13.515Z,5.95
2023-03-02T06:07:40.507Z,6.13
2023-03-02T06:10:08.087Z,5.63
2023-03-02T06:12:36.043Z,5.68
2023-03-02T06:15:03.523Z,5.35
2023-03-02T06:17:30.518Z,6.43
2023-03-02T06:19:57.385Z,5.60
2023-03-02T06:22:24.186Z,6.05
2023-03-02T06:24:51.093Z,5.32
2023-03-02T06:27:17.950Z,6.70
2023-03-02T06:29:45.216Z,5.85
2023-03-02T06:32:12.121Z,5.80
2023-03-02T06:34:39.101Z,6.85
2023-03-02T06:37:05.884Z,6.55
2023-03-02T06:39:33.980Z,6.40
2023-03-02T06:42:00.897Z,6.38
2023-03-02T06:44:27.689Z,6.20
2023-03-02T06:46:54.541Z,6.05
2023-03-02T06:49:21.393Z,6.25
2023-03-02T06:51:48.297Z,6.22
2023-03-02T06:54:15.262Z,6.45
2023-03-02T06:56:42.079Z,6.65
2023-03-02T06:59:08.894Z,6.07
2023-03-02T07:01:36.401Z,5.97
2023-03-02T07:04:03.576Z,6.50
2023-03-02T07:06:30.500Z,5.82
2023-03-02T07:08:57.389Z,5.45
2023-03-02T07:11:24.224Z,5.75
2023-03-02T07:13:51.497Z,6.15
2023-03-02T07:16:18.312Z,7.05
2023-03-02T07:18:45.196Z,5.90
2023-03-02T07:21:12.063Z,6.38
2023-03-02T07:23:38.949Z,6.95
2023-03-02T07:26:08.604Z,6.07
2023-03-02T07:28:43.362Z,5.68
2023-03-02T07:31:11.143Z,7.03
2023-03-02T07:33:38.940Z,6.13
2023-03-02T07:36:07.099Z,6.72
2023-03-02T07:38:34.268Z,6.88
2023-03-02T07:41:01.036Z,6.95
2023-03-02T07:43:28.871Z,7.88
2023-03-02T07:45:56.133Z,7.10
2023-03-02T07:48:23.642Z,7.30
2023-03-02T07:50:50.454Z,6.70
2023-03-02T07:53:17.302Z,7.05
2023-03-02T07:55:44.122Z,7.65
2023-03-02T07:58:10.917Z,8.43
2023-03-02T08:00:40.675Z,7.13
2023-03-02T08:03:08.607Z,7.45
2023-03-02T08:05:35.454Z,7.75
2023-03-02T08:08:02.286Z,8.63
2023-03-02T08:10:29.086Z,7.97
2023-03-02T08:12:55.943Z,8.10
2023-03-02T08:15:23.481Z,9.57
2023-03-02T08:17:50.329Z,8.93
2023-03-02T08:20:17.173Z,9.00
2023-03-02T08:22:43.942Z,8.77
2023-03-02T08:25:10.799Z,9.32
2023-03-02T08:27:40.335Z,8.75
2023-03-02T08:30:08.091Z,9.60
2023-03-02T08:32:35.004Z,9.93
2023-03-02T08:35:02.186Z,8.50
2023-03-02T08:37:28.999Z,9.70
2023-03-02T08:39:57.490Z,8.35
2023-03-02T08:42:25.248Z,9.52
2023-03-02T08:44:52.054Z,9.43
2023-03-02T08:47:18.903Z,8.93
2023-03-02T08:49:48.027Z,9.77
2023-03-02T08:52:15.493Z,9.57
2023-03-02T08:54:43.234Z,10.27
2023-03-02T08:57:10.857Z,9.05
2023-03-02T08:59:37.678Z,9.93
2023-03-02T09:02:04.496Z,10.48
2023-03-02T09:04:31.452Z,9.65
2023-03-02T09:06:58.275Z,11.45
2023-03-02T09:09:25.051Z,10.30
2023-03-02T09:11:51.998Z,10.90
2023-03-02T09:14:18.841Z,10.23
2023-03-02T09:16:46.295Z,10.52
2023-03-02T09:19:13.918Z,10.82
2023-03-02T09:21:40.778Z,10.73
2023-03-02T09:24:07.735Z,11.55
2023-03-02T09:26:35.032Z,11.45
2023-03-02T09:29:01.908Z,10.52
2023-03-02T09:31:30.349Z,11.05
2023-03-02T09:33:57.511Z,10.85
2023-03-02T09:36:25.474Z,11.18
2023-03-02T09:38:52.900Z,11.93
2023-03-02T09:41:19.772Z,12.93
2023-03-02T09:43:49.468Z,9.90
2023-03-02T09:46:19.417Z,10.60
2023-03-02T09:48:46.220Z,10.48
2023-03-02T09:51:34.802Z,11.20
2023-03-02T09:54:01.699Z,10.45
2023-03-02T09:56:28.571Z,10.25
2023-03-02T09:58:59.234Z,11.50
2023-03-02T10:01:30.402Z,12.23
2023-03-02T10:04:07.184Z,11.32
2023-03-02T10:06:34.440Z,11.73
2023-03-02T10:09:01.714Z,10.35
2023-03-02T10:11:39.634Z,11.18
2023-03-02T10:14:20.540Z,10.75
2023-03-02T10:16:48.649Z,10.18
2023-03-02T10:19:42.394Z,11.60
2023-03-02T10:22:23.046Z,10.05
2023-03-02T10:25:08.228Z,9.55
2023-03-02T10:27:38.370Z,10.18
2023-03-02T10:30:17.435Z,10.30
2023-03-02T10:32:55.058Z,9.50
2023-03-02T10:35:26.695Z,10.43
2023-03-02T10:38:13.528Z,10.82
2023-03-02T10:40:50.387Z,10.50
2023-03-02T10:43:19.241Z,10.98
2023-03-02T10:45:46.591Z,10.45
2023-03-02T10:48:14.528Z,9.98
2023-03-02T10:50:42.303Z,11.32
2023-03-02T10:53:18.569Z,10.40
2023-03-02T10:55:49.513Z,10.93
2023-03-02T10:58:20.136Z,10.65
2023-03-02T11:00:57.293Z,11.60
2023-03-02T11:03:24.147Z,10.10
2023-03-02T11:05:51.097Z,10.68
2023-03-02T11:08:19.675Z,10.82
2023-03-02T11:11:05.178Z,10.55
2023-03-02T11:13:36.252Z,9.80
2023-03-02T11:16:04.603Z,10.07
2023-03-02T11:18:34.519Z,11.25
2023-03-02T11:21:04.578Z,10.05
2023-03-02T11:23:40.674Z,11.18
2023-03-02T11:26:15.445Z,10.55
2023-03-02T11:29:05.448Z,10.93
2023-03-02T11:31:39.366Z,10.85
2023-03-02T11:34:17.244Z,10.15
2023-03-02T11:36:50.534Z,10.13
2023-03-02T11:39:20.638Z,11.55
2023-03-02T11:41:47.478Z,10.45
2023-03-02T11:44:16.183Z,9.48
2023-03-02T11:46:45.632Z,9.85
2023-03-02T11:49:19.430Z,8.98
2023-03-02T11:51:58.172Z,11.43
2023-03-02T11:54:31.132Z,9.23
2023-03-02T11:56:58.912Z,10.02
2023-03-02T11:59:28.527Z,10.25
2023-03-02T12:01:57.111Z,9.05
2023-03-02T12:04:28.650Z,10.88
2023-03-02T12:06:55.939Z,19.40
2023-03-02T12:09:22.822Z,10.45
2023-03-02T12:12:00.963Z,10.02
2023-03-02T12:14:29.828Z,9.40
2023-03-02T12:17:05.656Z,8.48
2023-03-02T12:19:39.915Z,8.48
2023-03-02T12:22:10.005Z,8.77
2023-03-02T12:24:38.119Z,8.98
2023-03-02T12:27:25.778Z,8.10
2023-03-02T12:30:08.102Z,8.50
2023-03-02T12:32:35.343Z,8.57
2023-03-02T12:35:08.170Z,8.50
2023-03-02T12:37:37.761Z,8.73
2023-03-02T12:40:04.572Z,8.48
2023-03-02T12:42:46.819Z,8.30
2023-03-02T12:45:32.797Z,9.10
2023-03-02T12:48:06.124Z,7.50
2023-03-02T12:50:37.748Z,7.93
2023-03-02T12:53:05.833Z,8.85
2023-03-02T12:55:34.404Z,8.35
2023-03-02T12:58:02.101Z,8.70
2023-03-02T13:00:30.902Z,8.10
2023-03-02T13:02:58.753Z,8.32
2023-03-02T13:05:27.251Z,9.55
2023-03-02T13:08:04.401Z,8.68
2023-03-02T13:10:39.213Z,9.43
2023-03-02T13:13:15.172Z,9.30
2023-03-02T13:15:49.214Z,9.23
2023-03-02T13:18:16.293Z,8.98
2023-03-02T13:20:43.353Z,8.10
2023-03-02T13:23:12.722Z,8.23
2023-03-02T13:25:47.292Z,9.35
2023-03-02T13:28:27.684Z,8.77
2023-03-02T13:30:59.149Z,8.13
2023-03-02T13:33:27.236Z,8.40
2023-03-02T13:35:54.197Z,7.85
2023-03-02T13:38:21.642Z,8.00
2023-03-02T13:40:51.549Z,8.35
2023-03-02T13:43:32.668Z,7.85
2023-03-02T13:46:00.590Z,7.43
2023-03-02T13:48:27.929Z,8.48
2023-03-02T13:50:57.161Z,7.68
2023-03-02T13:53:25.211Z,8.27
2023-03-02T13:55:54.239Z,8.32
2023-03-02T13:58:22.796Z,7.50
2023-03-02T14:00:50.015Z,7.95
2023-03-02T14:03:27.326Z,7.88
2023-03-02T14:05:54.819Z,7.68
2023-03-02T14:08:21.662Z,7.97
2023-03-02T14:10:49.830Z,7.43
2023-03-02T14:13:30.579Z,7.90
2023-03-02T14:15:57.502Z,7.57
2023-03-02T14:18:24.354Z,6.80
2023-03-02T14:20:51.233Z,8.18
2023-03-02T14:23:18.184Z,7.78
2023-03-02T14:25:45.094Z,8.00
2023-03-02T14:28:13.549Z,7.13
2023-03-02T14:30:41.764Z,7.32
2023-03-02T14:33:15.718Z,6.82
2023-03-02T14:35:42.787Z,7.00
2023-03-02T14:38:09.910Z,7.25
2023-03-02T14:40:36.901Z,8.23
2023-03-02T14:43:04.122Z,6.32
2023-03-02T14:45:31.117Z,6.47
2023-03-02T14:47:58.003Z,6.10
2023-03-02T14:50:24.853Z,6.15
2023-03-02T14:52:54.973Z,6.35
2023-03-02T14:55:31.106Z,6.53
2023-03-02T14:58:03.639Z,6.18
2023-03-02T15:00:30.766Z,6.63
2023-03-02T15:02:58.249Z,6.18
2023-03-02T15:05:25.261Z,5.35
2023-03-02T15:07:53.752Z,5.68
2023-03-02T15:10:21.761Z,6.18
2023-03-02T15:12:48.757Z,6.15
2023-03-02T15:15:15.630Z,6.53
2023-03-02T15:17:42.447Z,5.80
2023-03-02T15:20:13.689Z,6.30
2023-03-02T15:22:40.489Z,5.90
2023-03-02T15:25:07.417Z,5.30
2023-03-02T15:27:34.201Z,5.78
2023-03-02T15:30:01.110Z,5.78
2023-03-02T15:32:28.036Z,5.57
2023-03-02T15:34:54.945Z,5.20
2023-03-02T15:37:22.197Z,5.68
2023-03-02T15:39:52.970Z,5.88
2023-03-02T15:42:19.766Z,6.30
2023-03-02T15:44:46.664Z,5.70
2023-03-02T15:47:13.610Z,5.72
2023-03-02T15:49:40.487Z,5.53
2023-03-02T15:52:07.426Z,5.60
2023-03-02T15:54:34.194Z,5.30
2023-03-02T15:57:01.072Z,5.47
2023-03-02T15:59:28.647Z,4.82
2023-03-02T16:01:59.680Z,5.45
2023-03-02T16:06:54.992Z,6.13
2023-03-02T16:09:24.014Z,5.20
2023-03-02T16:11:51.109Z,5.70
2023-03-02T16:14:18.413Z,6.00
2023-03-02T16:16:46.034Z,4.88
2023-03-02T16:19:14.261Z,4.80
2023-03-02T16:21:41.312Z,4.40
2023-03-02T16:24:08.343Z,3.97
2023-03-02T16:26:36.538Z,4.30
2023-03-02T16:29:04.463Z,4.10
2023-03-02T16:31:33.324Z,4.18
2023-03-02T16:34:03.810Z,4.10
2023-03-02T16:36:30.689Z,4.30
2023-03-02T16:38:57.536Z,4.35
2023-03-02T16:41:24.412Z,4.18
2023-03-02T16:43:55.176Z,4.38
2023-03-02T16:46:23.114Z,4.30
2023-03-02T16:48:50.051Z,3.53
2023-03-02T16:51:17.874Z,3.50
2023-03-02T16:53:45.045Z,4.00
2023-03-02T16:56:13.166Z,3.75
2023-03-02T16:58:41.530Z,4.25
2023-03-02T17:01:10.141Z,4.00
2023-03-02T17:03:37.038Z,3.53
2023-03-02T17:06:05.304Z,3.47
2023-03-02T17:08:32.138Z,3.80
2023-03-02T17:10:58.964Z,3.33
2023-03-02T17:13:26.291Z,3.17
2023-03-02T17:15:53.294Z,3.33
2023-03-02T17:18:20.351Z,3.60
2023-03-02T17:20:50.652Z,3.70
2023-03-02T17:23:17.428Z,3.40
2023-03-02T17:25:44.252Z,3.40
2023-03-02T17:28:12.696Z,4.28
2023-03-02T17:30:40.253Z,3.83
2023-03-02T17:33:07.147Z,3.90
2023-03-02T17:35:34.116Z,3.85
2023-03-02T17:38:01.017Z,3.78
2023-03-02T17:40:27.890Z,3.90
2023-03-02T17:42:57.336Z,3.88
2023-03-02T17:45:25.759Z,4.55
2023-03-02T17:47:53.403Z,3.97
2023-03-02T17:50:20.785Z,3.63
2023-03-02T17:52:47.671Z,4.15
2023-03-02T17:55:14.572Z,4.07
2023-03-02T17:57:42.386Z,4.72
2023-03-02T18:00:11.316Z,4.60
2023-03-02T18:02:39.215Z,4.93
2023-03-02T18:05:07.970Z,5.47
2023-03-02T18:07:34.760Z,4.60
2023-03-02T18:10:01.530Z,4.55
2023-03-02T18:12:28.498Z,3.88
2023-03-02T18:14:55.340Z,3.97
2023-03-02T18:17:22.175Z,3.90
2023-03-02T18:19:49.084Z,3.85
2023-03-02T18:22:15.919Z,4.10
2023-03-02T18:24:42.802Z,3.70
2023-03-02T18:27:09.697Z,3.75
2023-03-02T18:29:36.612Z,3.15
2023-03-02T18:32:03.639Z,3.80
2023-03-02T18:34:30.528Z,3.00
2023-03-02T18:36:57.429Z,3.25
2023-03-02T18:39:24.378Z,3.33
2023-03-02T18:41:51.174Z,3.45
2023-03-02T18:44:18.782Z,3.75
2023-03-02T18:46:45.669Z,2.80
2023-03-02T18:49:12.513Z,3.05
2023-03-02T18:51:39.380Z,3.22
2023-03-02T18:54:06.346Z,3.38
2023-03-02T18:56:33.187Z,3.35
2023-03-02T18:59:00.035Z,3.85
2023-03-02T19:01:30.104Z,3.78
2023-03-02T19:03:57.721Z,2.90
2023-03-02T19:06:24.889Z,3.13
2023-03-02T19:08:51.909Z,3.28
2023-03-02T19:11:18.801Z,3.30
2023-03-02T19:13:45.660Z,2.83
2023-03-02T19:16:12.566Z,3.08
2023-03-02T19:18:39.388Z,3.03
2023-03-02T19:21:06.492Z,2.63
2023-03-02T19:23:33.787Z,2.47
2023-03-02T19:26:01.002Z,3.08
2023-03-02T19:28:28.047Z,3.20
2023-03-02T19:30:54.857Z,2.50
2023-03-02T19:33:24.901Z,3.28
2023-03-02T19:35:51.885Z,2.55
2023-03-02T19:38:19.286Z,2.40
2023-03-02T19:40:46.434Z,2.50
2023-03-02T19:43:13.323Z,3.00
2023-03-02T19:45:40.326Z,2.22
2023-03-02T19:48:07.361Z,2.40
2023-03-02T19:50:34.216Z,2.53
2023-03-02T19:53:01.014Z,2.33
2023-03-02T19:55:27.859Z,2.33
2023-03-02T19:58:00.979Z,2.10
2023-03-02T20:00:31.951Z,2.95
2023-03-02T20:03:01.364Z,2.45
2023-03-02T20:05:28.270Z,2.47
2023-03-02T20:07:55.550Z,2.30
2023-03-02T20:10:31.213Z,2.28
2023-03-02T20:12:59.756Z,2.42
2023-03-02T20:15:27.817Z,2.25
2023-03-02T20:17:54.667Z,2.45
2023-03-02T20:20:21.881Z,2.70
2023-03-02T20:22:49.650Z,2.40
2023-03-02T20:25:16.582Z,2.25
2023-03-02T20:27:43.449Z,2.38
2023-03-02T20:30:11.616Z,2.28
2023-03-02T20:32:38.541Z,2.63
2023-03-02T20:35:05.391Z,2.50
2023-03-02T20:37:32.944Z,2.10
2023-03-02T20:39:59.933Z,2.28
2023-03-02T20:42:27.613Z,2.35
2023-03-02T20:44:56.506Z,2.55
2023-03-02T20:47:23.312Z,2.38
2023-03-02T20:49:50.247Z,2.63
2023-03-02T20:52:17.192Z,2.40
2023-03-02T20:54:44.330Z,2.50
2023-03-02T20:57:15.340Z,2.20
2023-03-02T20:59:45.107Z,2.53
2023-03-02T21:02:14.047Z,2.33
2023-03-02T21:04:41.749Z,2.30
2023-03-02T21:07:08.798Z,2.47
2023-03-02T21:09:36.611Z,2.00
2023-03-02T21:12:04.824Z,2.53
2023-03-02T21:14:33.347Z,2.50
2023-03-02T21:17:00.261Z,2.58
2023-03-02T21:19:29.176Z,2.55
2023-03-02T21:21:56.593Z,2.80
2023-03-02T21:24:23.781Z,2.65
2023-03-02T21:26:51.669Z,2.30
2023-03-02T21:29:19.721Z,2.67
2023-03-02T21:31:47.861Z,2.22
2023-03-02T21:34:15.177Z,2.70
2023-03-02T21:36:43.054Z,2.70
2023-03-02T21:39:10.254Z,2.95
2023-03-02T21:41:37.160Z,2.55
2023-03-02T21:44:05.774Z,2.55
2023-03-02T21:46:33.681Z,2.67
2023-03-02T21:49:00.560Z,2.72
2023-03-02T21:51:27.407Z,3.13
2023-03-02T21:53:54.375Z,2.88
2023-03-02T21:56:22.467Z,2.90
2023-03-02T21:58:50.394Z,2.80
2023-03-02T22:01:17.415Z,3.03
2023-03-02T22:03:44.948Z,2.97
2023-03-02T22:06:17.187Z,2.88
2023-03-02T22:08:44.150Z,2.75
2023-03-02T22:11:12.780Z,2.80
2023-03-02T22:13:39.682Z,2.75
2023-03-02T22:16:14.724Z,3.00
2023-03-02T22:18:41.978Z,2.70
2023-03-02T22:21:17.977Z,2.85
2023-03-02T22:23:44.874Z,2.90
2023-03-02T22:26:15.752Z,2.80
2023-03-02T22:28:42.721Z,2.88
2023-03-02T22:31:17.205Z,3.13
2023-03-02T22:33:44.151Z,3.10
2023-03-02T22:36:16.310Z,2.75
2023-03-02T22:38:43.184Z,3.08
2023-03-02T22:41:13.770Z,3.10
2023-03-02T22:43:40.573Z,3.45
2023-03-02T22:46:15.617Z,3.40
2023-03-02T22:48:52.263Z,3.45
2023-03-02T22:51:23.669Z,3.75
2023-03-02T22:53:58.518Z,3.38
2023-03-02T22:56:34.046Z,3.97
2023-03-02T22:59:16.351Z,3.10
2023-03-02T23:01:44.289Z,3.47
2023-03-02T23:04:14.241Z,3.70
2023-03-02T23:06:45.088Z,3.75
2023-03-02T23:09:17.383Z,3.45
2023-03-02T23:11:44.981Z,3.42
2023-03-02T23:14:15.009Z,4.40
2023-03-02T23:16:41.975Z,3.55
2023-03-02T23:19:08.837Z,3.65
2023-03-02T23:21:40.165Z,4.05
2023-03-02T23:24:07.975Z,3.97
2023-03-02T23:26:34.920Z,3.63
2023-03-02T23:29:01.762Z,4.30
2023-03-02T23:31:28.666Z,3.72
2023-03-02T23:33:55.543Z,3.90
2023-03-02T23:36:22.522Z,4.90
2023-03-02T23:38:49.990Z,3.72
2023-03-02T23:41:17.115Z,4.00
2023-03-02T23:43:44.021Z,3.47
2023-03-02T23:46:14.283Z,3.95
2023-03-02T23:48:42.221Z,4.05
2023-03-02T23:51:09.466Z,3.67
2023-03-02T23:53:36.291Z,4.05
2023-03-02T23:56:03.153Z,3.80
2023-03-02T23:58:30.014Z,3.83
